EW5807 Weather Reports


Display with metric or nautical units.
time (UTC)temp
F
wind
direction
speed
MPH
gust
MPH
rain 1hr
in
rain 24hr
in
rain mn
in
humidity
%
barometer
mb
20240621063056 64 60 7.0 11.0 0.00 0.00 0.00 29 1005.4
20240621061619 64 69 8.0 12.0 0.00 0.00 0.00 27 1005.4
20240621060054 65 53 6.0 9.0 0.00 0.00 0.00 27 1005.4
20240621054552 66 63 5.0 8.0 0.00 0.00 0.00 26 1005.2
20240621053051 65 354 2.0 8.0 0.00 0.00 0.00 27 1005.2
20240621051551 64 138 0.0 2.0 0.00 0.00 0.00 28 1005.0
20240621050049 66 147 0.0 2.0 0.00 0.00 0.00 27 1005.0
20240621044547 66 125 0.0 2.0 0.00 0.00 0.00 28 1004.8
20240621043047 68 62 1.0 3.0 0.00 0.00 0.00 25 1004.7
20240621041548 67 65 1.0 4.0 0.00 0.00 0.00 28 1004.6
20240621040042 68 3 0.0 3.0 0.00 0.00 0.00 29 1004.4
20240621034543 70 61 0.0 1.0 0.00 0.00 0.00 27 1004.3
20240621033041 71 59 0.0 1.0 0.00 0.00 0.00 28 1004.2
20240621031540 73 130 0.0 0.0 0.00 0.00 0.00 24 1004.2
20240621030039 76 140 0.0 0.0 0.00 0.00 0.00 22 1004.0
20240621024545 78 144 0.0 1.0 0.00 0.00 0.00 21 1004.1
20240621023042 79 56 0.0 2.0 0.00 0.00 0.00 18 1004.0
20240621021508 79 49 0.0 2.0 0.00 0.00 0.00 17 1004.1
20240621020008 79 153 0.0 1.0 0.00 0.00 0.00 17 1004.3
20240621014502 81 101 0.0 2.0 0.00 0.00 0.00 16 1004.3
20240621013001 82 58 0.0 2.0 0.00 0.00 0.00 14 1004.1
20240621011603 83 229 0.0 4.0 0.00 0.00 0.00 13 1004.2
20240621010057 84 181 0.0 4.0 0.00 0.00 0.00 13 1004.4
20240621004526 83 154 2.0 8.0 0.00 0.00 0.00 12 1004.5
20240621003025 82 133 0.0 4.0 0.00 0.00 0.00 13 1004.5
20240621001522 82 147 0.0 7.0 0.00 0.00 0.00 13 1004.7
20240621000019 83 221 3.0 10.0 0.00 0.00 0.00 11 1004.9
20240620234517 85 212 2.0 11.0 0.00 0.00 0.00 10 1005.0
20240620233016 84 257 7.0 11.0 0.00 0.00 0.00 11 1005.4
20240620231515 83 215 2.0 9.0 0.00 0.00 0.00 14 1005.5
20240620230010 83 140 2.0 8.0 0.00 0.00 0.00 13 1005.6
20240620224539 85 157 3.0 13.0 0.00 0.00 0.00 12 1005.7
20240620223011 84 192 0.0 7.0 0.00 0.00 0.00 12 1005.9
20240620221542 84 234 4.0 16.0 0.00 0.00 0.00 11 1006.2
20240620220034 83 119 6.0 12.0 0.00 0.00 0.00 12 1006.3
20240620214529 83 92 4.0 11.0 0.00 0.00 0.00 12 1006.4
20240620213027 84 97 3.0 16.0 0.00 0.00 0.00 12 1006.6
20240620211526 84 153 2.0 13.0 0.00 0.00 0.00 13 1006.8
20240620210025 85 127 4.0 13.0 0.00 0.00 0.00 14 1006.9
20240620204550 84 150 0.0 4.0 0.00 0.00 0.00 15 1007.1
20240620203047 85 149 0.0 7.0 0.00 0.00 0.00 15 1007.4
20240620201539 82 215 3.0 7.0 0.00 0.00 0.00 13 1007.7
20240620200037 82 135 2.0 7.0 0.00 0.00 0.00 15 1007.8
20240620194535 80 130 2.0 6.0 0.00 0.00 0.00 14 1008.2
20240620193030 80 60 2.0 4.0 0.00 0.00 0.00 15 1008.5
20240620191558 78 351 1.0 4.0 0.00 0.00 0.00 14 1008.7
20240620190106 79 49 2.0 5.0 0.00 0.00 0.00 14 1008.8
20240620184523 77 60 2.0 5.0 0.00 0.00 0.00 16 1009.0
20240620183020 76 2 3.0 6.0 0.00 0.00 0.00 16 1009.1
20240620181515 75 348 2.0 5.0 0.00 0.00 0.00 17 1009.3
20240620180021 74 352 2.0 5.0 0.00 0.00 0.00 19 1009.3
20240620174509 73 25 2.0 4.0 0.00 0.00 0.00 20 1009.6
20240620173005 71 324 0.0 3.0 0.00 0.00 0.00 20 1009.8
20240620171502 71 282 1.0 5.0 0.00 0.00 0.00 20 1010.0
20240620170101 69 285 1.0 4.0 0.00 0.00 0.00 21 1010.1
20240620164601 67 52 0.0 4.0 0.00 0.00 0.00 23 1010.2
20240620163051 66 264 0.0 4.0 0.00 0.00 0.00 24 1010.3
20240620161545 65 41 0.0 3.0 0.00 0.00 0.00 25 1010.4
20240620160043 64 48 1.0 4.0 0.00 0.00 0.00 25 1010.5
20240620154539 62 339 0.0 4.0 0.00 0.00 0.00 27 1010.6
20240620153038 61 334 1.0 3.0 0.00 0.00 0.00 28 1010.6
20240620151603 60 359 1.0 4.0 0.00 0.00 0.00 30 1010.8
20240620150033 59 52 2.0 5.0 0.00 0.00 0.00 28 1010.7
20240620144528 58 47 3.0 5.0 0.00 0.00 0.00 29 1010.8
20240620143021 57 32 0.0 2.0 0.00 0.00 0.00 34 1010.8
20240620141619 56 183 0.0 0.0 0.00 0.00 0.00 39 1010.8
20240620140045 52 194 0.0 0.0 0.00 0.00 0.00 47 1010.8
20240620134548 48 203 0.0 0.0 0.00 0.00 0.00 58 1010.9
20240620133037 45 228 0.0 0.0 0.00 0.00 0.00 60 1010.7
20240620131538 47 298 0.0 0.0 0.00 0.00 0.00 52 1010.5
20240620130028 0 0.0 0.0 0.00 0.00 0.00 1010.4
20240620124524 0 0.0 0.0 0.00 0.00 0.00 1010.4
20240620123018 0 0.0 0.0 0.00 0.00 0.00 1010.7
20240620121517 0 0.0 0.0 0.00 0.00 0.00 1010.8
20240620120010 41 274 0.0 0.0 0.00 0.00 0.00 51 1011.0
20240620114511 43 274 0.0 0.0 0.00 0.00 0.00 48 1011.0
20240620113059 46 146 0.0 0.0 0.00 0.00 0.00 44 1010.9
20240620111600 46 131 0.0 0.0 0.00 0.00 0.00 45 1010.9
20240620110100 46 131 0.0 0.0 0.00 0.00 0.00 44 1010.7
20240620104601 46 135 0.0 0.0 0.00 0.00 0.00 44 1010.7
20240620103056 46 76 0.0 0.0 0.00 0.00 0.00 44 1010.7
20240620101559 47 72 0.0 0.0 0.00 0.00 0.00 43 1010.6
20240620100059 48 72 0.0 1.0 0.00 0.00 0.00 41 1010.5
20240620094556 48 72 0.0 2.0 0.00 0.00 0.00 41 1010.6
20240620093107 47 47 0.0 0.0 0.00 0.00 0.00 42 1010.5
20240620091551 49 47 0.0 1.0 0.00 0.00 0.00 40 1010.3
20240620090105 50 4 0.0 1.0 0.00 0.00 0.00 39 1010.3
20240620084558 51 63 1.0 8.0 0.00 0.00 0.00 37 1010.2
20240620083049 52 65 3.0 7.0 0.00 0.00 0.00 37 1010.2
20240620081546 52 49 3.0 7.0 0.00 0.00 0.00 37 1010.3
20240620080046 52 65 0.0 4.0 0.00 0.00 0.00 36 1010.4
20240620074546 53 55 2.0 7.0 0.00 0.00 0.00 35 1010.4
20240620073015 53 50 4.0 8.0 0.00 0.00 0.00 36 1010.2
20240620071517 52 60 3.0 5.0 0.00 0.00 0.00 36 1010.2
20240620070020 54 350 0.0 9.0 0.00 0.00 0.00 34 1010.3
20240620064511 55 61 6.0 11.0 0.00 0.00 0.00 32 1010.1